createdAt,value
2023-04-21T00:00:03.014Z,1.47
2023-04-21T00:01:03.043Z,1.39
2023-04-21T00:02:03.114Z,1.08
2023-04-21T00:03:03.187Z,1.16
2023-04-21T00:04:03.232Z,1.13
2023-04-21T00:05:03.300Z,1.10
2023-04-21T00:06:03.207Z,1.15
2023-04-21T00:07:03.210Z,1.17
2023-04-21T00:08:03.282Z,0.98
2023-04-21T00:09:03.309Z,1.23
2023-04-21T00:10:03.317Z,1.07
2023-04-21T00:11:03.655Z,1.11
2023-04-21T00:12:03.616Z,1.44
2023-04-21T00:13:03.424Z,0.94
2023-04-21T00:14:03.458Z,1.35
2023-04-21T00:15:03.508Z,1.59
2023-04-21T00:16:03.599Z,1.38
2023-04-21T00:17:03.576Z,1.19
2023-04-21T00:18:03.670Z,1.59
2023-04-21T00:19:03.643Z,1.46
2023-04-21T00:20:03.717Z,1.49
2023-04-21T00:21:03.715Z,1.17
2023-04-21T00:22:03.748Z,1.02
2023-04-21T00:23:03.818Z,0.92
2023-04-21T00:24:03.823Z,1.04
2023-04-21T00:25:03.858Z,1.32
2023-04-21T00:26:03.919Z,0.95
2023-04-21T00:27:03.951Z,1.05
2023-04-21T00:28:03.970Z,1.44
2023-04-21T00:29:04.014Z,1.16
2023-04-21T00:30:04.055Z,0.89
2023-04-21T00:31:04.126Z,1.36
2023-04-21T00:32:04.137Z,1.04
2023-04-21T00:33:04.199Z,0.95
2023-04-21T00:34:04.187Z,1.28
2023-04-21T00:35:04.246Z,1.16
2023-04-21T00:36:04.267Z,0.95
2023-04-21T00:37:04.281Z,1.25
2023-04-21T00:38:04.351Z,1.20
2023-04-21T00:39:04.368Z,0.98
2023-04-21T00:40:04.452Z,1.05
2023-04-21T00:41:04.450Z,1.23
2023-04-21T00:42:04.482Z,1.41
2023-04-21T00:43:04.498Z,1.13
2023-04-21T00:44:04.561Z,1.27
2023-04-21T00:45:04.600Z,1.31
2023-04-21T00:46:04.651Z,1.42
2023-04-21T00:47:04.778Z,1.23
2023-04-21T00:48:04.783Z,1.22
2023-04-21T00:49:04.755Z,0.98
2023-04-21T00:50:04.786Z,1.44
2023-04-21T00:51:04.848Z,1.26
2023-04-21T00:52:04.847Z,1.17
2023-04-21T00:53:04.888Z,1.21
2023-04-21T00:54:04.945Z,1.17
2023-04-21T00:55:04.983Z,1.31
2023-04-21T00:56:05.047Z,1.41
2023-04-21T00:57:05.060Z,1.27
2023-04-21T00:58:05.113Z,1.22
2023-04-21T00:59:05.163Z,1.20
2023-04-21T01:00:05.164Z,1.48
2023-04-21T01:01:05.297Z,1.18
2023-04-21T01:02:05.358Z,1.10
2023-04-21T01:03:05.396Z,1.17
2023-04-21T01:04:05.558Z,1.39
2023-04-21T01:05:05.369Z,1.26
2023-04-21T01:06:05.383Z,1.23
2023-04-21T01:07:05.426Z,1.15
2023-04-21T01:08:05.505Z,1.26
2023-04-21T01:09:05.535Z,1.28
2023-04-21T01:10:05.527Z,1.37
2023-04-21T01:11:05.575Z,1.24
2023-04-21T01:12:05.621Z,1.16
2023-04-21T01:13:05.651Z,1.11
2023-04-21T01:14:05.682Z,1.36
2023-04-21T01:15:05.747Z,1.32
2023-04-21T01:16:05.767Z,1.19
2023-04-21T01:17:05.807Z,1.10
2023-04-21T01:18:05.911Z,0.88
2023-04-21T01:19:05.918Z,0.86
2023-04-21T01:20:05.934Z,1.24
2023-04-21T01:21:05.964Z,0.83
2023-04-21T01:22:05.993Z,1.38
2023-04-21T01:23:06.047Z,1.15
2023-04-21T01:24:06.070Z,1.26
2023-04-21T01:25:06.147Z,1.09
2023-04-21T01:26:06.173Z,1.04
2023-04-21T01:27:06.177Z,1.54
2023-04-21T01:28:06.258Z,1.28
2023-04-21T01:29:06.272Z,1.09
2023-04-21T01:30:06.333Z,0.98
2023-04-21T01:31:06.336Z,1.31
2023-04-21T01:32:06.411Z,1.20
2023-04-21T01:33:06.481Z,1.12
2023-04-21T01:34:06.467Z,1.17
2023-04-21T01:35:06.501Z,1.03
2023-04-21T01:36:06.543Z,1.09
2023-04-21T01:37:06.592Z,1.17
2023-04-21T01:38:06.650Z,0.97
2023-04-21T01:39:06.657Z,1.02
2023-04-21T01:40:06.722Z,1.21
2023-04-21T01:41:06.748Z,1.05
2023-04-21T01:42:07.163Z,0.76
2023-04-21T01:43:06.835Z,1.31
2023-04-21T01:44:06.897Z,1.39
2023-04-21T01:45:06.917Z,0.86
2023-04-21T01:46:07.015Z,0.94
2023-04-21T01:47:07.009Z,1.10
2023-04-21T01:48:07.078Z,1.18
2023-04-21T01:49:07.064Z,0.90
2023-04-21T01:50:07.117Z,1.11
2023-04-21T01:51:07.196Z,1.02
2023-04-21T01:52:07.154Z,1.12
2023-04-21T01:53:07.236Z,1.08
2023-04-21T01:54:07.250Z,1.00
2023-04-21T01:55:07.304Z,0.89
2023-04-21T01:56:07.377Z,1.17
2023-04-21T01:57:07.466Z,1.21
2023-04-21T01:58:07.472Z,1.23
2023-04-21T01:59:07.496Z,1.01
2023-04-21T02:00:07.585Z,1.01
2023-04-21T02:01:07.586Z,1.26
2023-04-21T02:02:07.758Z,1.15
2023-04-21T02:03:07.902Z,1.06
2023-04-21T02:04:07.885Z,0.84
2023-04-21T02:05:07.756Z,0.97
2023-04-21T02:06:07.778Z,1.23
2023-04-21T02:07:07.838Z,1.43
2023-04-21T02:08:07.923Z,1.12
2023-04-21T02:09:07.902Z,0.96
2023-04-21T02:10:07.947Z,1.10
2023-04-21T02:11:07.961Z,1.20
2023-04-21T02:12:08.182Z,0.84
2023-04-21T02:13:08.064Z,1.33
2023-04-21T02:14:08.090Z,1.01
2023-04-21T02:15:08.161Z,1.17
2023-04-21T02:16:13.530Z,0.96
2023-04-21T02:17:09.203Z,1.33
2023-04-21T02:18:08.186Z,0.87
2023-04-21T02:19:08.172Z,1.15
2023-04-21T02:20:08.184Z,1.27
2023-04-21T02:21:08.147Z,0.90
2023-04-21T02:22:08.186Z,1.09
2023-04-21T02:23:08.152Z,1.15
2023-04-21T02:24:08.115Z,1.18
2023-04-21T02:25:08.118Z,1.26
2023-04-21T02:26:08.141Z,1.32
2023-04-21T02:27:08.112Z,1.15
2023-04-21T02:28:08.174Z,0.88
2023-04-21T02:29:08.222Z,1.07
2023-04-21T02:30:08.262Z,1.01
2023-04-21T02:31:08.412Z,1.05
2023-04-21T02:33:08.407Z,1.05
2023-04-21T02:34:08.436Z,0.98
2023-04-21T02:35:08.465Z,1.32
2023-04-21T02:36:08.538Z,1.18
2023-04-21T02:37:08.567Z,0.76
2023-04-21T02:38:08.623Z,1.32
2023-04-21T02:39:08.684Z,1.12
2023-04-21T02:40:08.729Z,1.06
2023-04-21T02:41:08.769Z,1.21
2023-04-21T02:42:08.846Z,1.06
2023-04-21T02:43:08.874Z,1.11
2023-04-21T02:44:08.938Z,1.39
2023-04-21T02:45:08.979Z,1.11
2023-04-21T02:46:09.041Z,1.07
2023-04-21T02:47:09.100Z,1.26
2023-04-21T02:48:09.177Z,1.54
2023-04-21T02:49:09.182Z,0.99
2023-04-21T02:50:09.254Z,1.57
2023-04-21T02:51:09.274Z,1.10
2023-04-21T02:52:09.348Z,1.09
2023-04-21T02:53:09.357Z,1.09
2023-04-21T02:54:09.426Z,0.98
2023-04-21T02:55:09.449Z,1.16
2023-04-21T02:56:09.541Z,1.08
2023-04-21T02:57:09.549Z,1.33
2023-04-21T02:58:09.614Z,1.21
2023-04-21T02:59:09.671Z,1.00
2023-04-21T03:00:09.702Z,1.12
2023-04-21T03:01:09.841Z,1.13
2023-04-21T03:02:09.875Z,1.28
2023-04-21T03:03:10.006Z,1.04
2023-04-21T03:04:09.974Z,1.10
2023-04-21T03:05:09.962Z,1.02
2023-04-21T03:06:10.014Z,1.08
2023-04-21T03:07:10.176Z,0.94
2023-04-21T03:08:10.097Z,0.91
2023-04-21T03:09:10.166Z,0.89
2023-04-21T03:10:10.237Z,1.01
2023-04-21T03:11:10.257Z,1.04
2023-04-21T03:12:10.336Z,0.89
2023-04-21T03:13:10.346Z,1.20
2023-04-21T03:14:10.409Z,1.26
2023-04-21T03:15:10.488Z,1.07
2023-04-21T03:16:10.626Z,1.06
2023-04-21T03:17:10.623Z,1.13
2023-04-21T03:18:10.716Z,1.03
2023-04-21T03:19:10.702Z,0.95
2023-04-21T03:20:10.735Z,0.92
2023-04-21T03:21:10.804Z,0.72
2023-04-21T03:22:10.883Z,1.34
2023-04-21T03:23:10.922Z,1.18
2023-04-21T03:24:10.959Z,1.22
2023-04-21T03:25:11.028Z,1.34
2023-04-21T03:26:11.050Z,1.37
2023-04-21T03:27:11.324Z,0.93
2023-04-21T03:28:11.138Z,1.07
2023-04-21T03:29:11.200Z,1.34
2023-04-21T03:30:11.281Z,1.17
2023-04-21T03:31:11.372Z,1.26
2023-04-21T03:32:11.486Z,1.45
2023-04-21T03:33:11.542Z,1.06
2023-04-21T03:34:11.537Z,1.31
2023-04-21T03:35:11.521Z,1.66
2023-04-21T03:36:11.602Z,1.32
2023-04-21T03:37:11.661Z,1.06
2023-04-21T03:38:11.682Z,1.44
2023-04-21T03:39:19.756Z,1.19
2023-04-21T03:40:12.720Z,1.03
2023-04-21T03:41:11.730Z,1.40
2023-04-21T03:42:11.697Z,1.26
2023-04-21T03:43:11.718Z,1.09
2023-04-21T03:44:11.688Z,1.02
2023-04-21T03:45:11.721Z,0.83
2023-04-21T03:46:11.715Z,1.30
2023-04-21T03:47:11.688Z,1.19
2023-04-21T03:48:11.785Z,1.04
2023-04-21T03:49:11.740Z,1.31
2023-04-21T03:50:11.793Z,0.91
2023-04-21T03:51:11.871Z,1.09
2023-04-21T03:52:11.883Z,1.07
2023-04-21T03:53:11.963Z,1.17
2023-04-21T03:54:11.976Z,1.11
2023-04-21T03:55:12.052Z,1.14
2023-04-21T03:56:12.099Z,0.95
2023-04-21T03:57:12.182Z,0.99
2023-04-21T03:58:12.215Z,1.38
2023-04-21T03:59:12.271Z,1.11
2023-04-21T04:00:12.298Z,1.15
2023-04-21T04:01:12.349Z,1.13
2023-04-21T04:02:12.575Z,1.37
2023-04-21T04:03:12.587Z,1.15
2023-04-21T04:04:12.925Z,1.11
2023-04-21T04:05:12.618Z,1.38
2023-04-21T04:06:12.622Z,0.89
2023-04-21T04:07:12.708Z,1.03
2023-04-21T04:08:12.747Z,1.10
2023-04-21T04:09:12.820Z,1.16
2023-04-21T04:10:12.873Z,1.17
2023-04-21T04:11:12.941Z,1.17
2023-04-21T04:12:13.030Z,1.43
2023-04-21T04:13:13.054Z,1.16
2023-04-21T04:14:13.115Z,0.84
2023-04-21T04:15:13.224Z,1.02
2023-04-21T04:16:13.342Z,1.21
2023-04-21T04:17:13.333Z,1.18
2023-04-21T04:18:13.362Z,1.43
2023-04-21T04:19:13.431Z,1.04
2023-04-21T04:20:13.483Z,1.25
2023-04-21T04:21:13.585Z,1.14
2023-04-21T04:22:13.634Z,1.02
2023-04-21T04:23:13.647Z,1.48
2023-04-21T04:24:13.775Z,1.09
2023-04-21T04:25:13.783Z,1.08
2023-04-21T04:26:13.857Z,1.31
2023-04-21T04:27:13.927Z,1.02
2023-04-21T04:28:13.948Z,0.92
2023-04-21T04:29:14.025Z,1.14
2023-04-21T04:30:14.112Z,1.01
2023-04-21T04:31:14.141Z,1.35
2023-04-21T04:32:14.191Z,1.04
2023-04-21T04:33:14.278Z,1.42
2023-04-21T04:34:14.314Z,1.18
2023-04-21T04:35:14.359Z,1.22
2023-04-21T04:36:14.421Z,1.09
2023-04-21T04:37:14.489Z,1.18
2023-04-21T04:38:14.567Z,1.34
2023-04-21T04:39:14.617Z,1.13
2023-04-21T04:40:14.694Z,1.35
2023-04-21T04:41:14.739Z,1.05
2023-04-21T04:42:14.820Z,1.22
2023-04-21T04:43:14.903Z,1.25
2023-04-21T04:44:14.930Z,1.39
2023-04-21T04:45:15.006Z,1.37
2023-04-21T04:46:15.100Z,1.01
2023-04-21T04:47:15.143Z,1.08
2023-04-21T04:48:15.224Z,1.17
2023-04-21T04:49:15.250Z,1.32
2023-04-21T04:50:15.316Z,1.18
2023-04-21T04:51:15.363Z,1.16
2023-04-21T04:52:15.433Z,1.31
2023-04-21T04:53:15.490Z,1.09
2023-04-21T04:54:15.564Z,1.10
2023-04-21T04:55:15.604Z,1.29
2023-04-21T04:56:15.686Z,1.44
2023-04-21T04:57:15.794Z,1.18
2023-04-21T04:58:15.812Z,1.22
2023-04-21T04:59:15.851Z,1.34
2023-04-21T05:00:16.041Z,1.37
2023-04-21T05:01:15.990Z,1.14
2023-04-21T05:02:16.103Z,1.09
2023-04-21T05:03:16.213Z,1.30
2023-04-21T05:04:16.356Z,0.94
2023-04-21T05:05:16.336Z,1.10
2023-04-21T05:06:16.286Z,1.47
2023-04-21T05:07:16.342Z,1.11
2023-04-21T05:08:17.996Z,1.52
2023-04-21T05:09:16.425Z,1.15
2023-04-21T05:10:16.550Z,0.97
2023-04-21T05:11:16.533Z,1.19
2023-04-21T05:12:16.709Z,1.35
2023-04-21T05:13:16.737Z,1.10
2023-04-21T05:14:16.760Z,1.21
2023-04-21T05:15:16.803Z,1.24
2023-04-21T05:16:16.889Z,1.13
2023-04-21T05:17:16.890Z,1.53
2023-04-21T05:18:16.975Z,1.42
2023-04-21T05:19:18.639Z,0.82
2023-04-21T05:20:17.029Z,1.07
2023-04-21T05:21:17.121Z,1.11
2023-04-21T05:22:17.137Z,1.15
2023-04-21T05:23:17.211Z,1.08
2023-04-21T05:24:17.351Z,1.32
2023-04-21T05:25:17.307Z,1.74
2023-04-21T05:26:17.395Z,1.74
2023-04-21T05:27:17.446Z,1.46
2023-04-21T05:28:17.471Z,1.34
2023-04-21T05:29:17.556Z,1.26
2023-04-21T05:30:17.606Z,1.22
2023-04-21T05:31:17.717Z,1.68
2023-04-21T05:32:17.768Z,1.33
2023-04-21T05:33:17.851Z,1.52
2023-04-21T05:34:17.956Z,1.22
2023-04-21T05:35:17.841Z,1.27
2023-04-21T05:36:17.970Z,1.23
2023-04-21T05:37:18.874Z,1.86
2023-04-21T05:38:17.904Z,1.70
2023-04-21T05:39:17.919Z,1.48
2023-04-21T05:40:17.975Z,1.94
2023-04-21T05:41:18.914Z,1.70
2023-04-21T05:42:18.876Z,3.97
2023-04-21T05:43:17.896Z,3.74
2023-04-21T05:44:18.318Z,4.19
2023-04-21T05:45:17.925Z,4.43
2023-04-21T05:46:17.969Z,5.45
2023-04-21T05:47:18.002Z,8.73
2023-04-21T05:48:18.033Z,8.84
2023-04-21T05:49:18.060Z,9.13
2023-04-21T05:50:18.106Z,10.40
2023-04-21T05:51:18.203Z,10.15
2023-04-21T05:52:18.150Z,10.26
2023-04-21T05:53:18.182Z,10.87
2023-04-21T05:54:18.468Z,9.50
2023-04-21T05:55:18.322Z,10.08
2023-04-21T05:56:18.400Z,10.35
2023-04-21T05:57:18.626Z,11.65
2023-04-21T05:58:19.254Z,10.40
2023-04-21T05:59:18.496Z,11.06
2023-04-21T06:00:18.502Z,10.50
2023-04-21T06:01:19.284Z,9.88
2023-04-21T06:02:18.941Z,9.50
2023-04-21T06:03:18.774Z,8.82
2023-04-21T06:04:18.966Z,8.84
2023-04-21T06:05:18.627Z,9.56
2023-04-21T06:06:18.629Z,8.37
2023-04-21T06:07:18.831Z,8.20
2023-04-21T06:08:18.643Z,8.59
2023-04-21T06:09:18.618Z,8.91
2023-04-21T06:10:18.616Z,7.92
2023-04-21T06:11:18.666Z,8.45
2023-04-21T06:12:18.679Z,8.66
2023-04-21T06:13:18.662Z,8.33
2023-04-21T06:14:19.179Z,8.91
2023-04-21T06:15:18.665Z,8.73
2023-04-21T06:16:18.753Z,9.08
2023-04-21T06:17:18.776Z,7.76
2023-04-21T06:18:18.700Z,8.05
2023-04-21T06:19:18.691Z,8.42
2023-04-21T06:20:18.741Z,8.72
2023-04-21T06:21:18.760Z,8.99
2023-04-21T06:22:18.771Z,7.61
2023-04-21T06:23:18.738Z,9.02
2023-04-21T06:24:18.922Z,7.69
2023-04-21T06:25:19.835Z,8.09
2023-04-21T06:26:18.892Z,7.21
2023-04-21T06:27:18.849Z,8.08
2023-04-21T06:28:18.836Z,7.46
2023-04-21T06:29:18.883Z,7.23
2023-04-21T06:30:18.928Z,8.32
2023-04-21T06:31:18.940Z,7.54
2023-04-21T06:32:18.952Z,7.57
2023-04-21T06:33:18.980Z,8.22
2023-04-21T06:34:19.224Z,7.87
2023-04-21T06:35:19.022Z,7.62
2023-04-21T06:36:19.040Z,8.39
2023-04-21T06:37:19.174Z,8.01
2023-04-21T06:38:19.149Z,6.17
2023-04-21T06:39:19.168Z,6.01
2023-04-21T06:40:19.169Z,6.95
2023-04-21T06:41:19.169Z,5.93
2023-04-21T06:42:19.799Z,6.76
2023-04-21T06:43:19.204Z,6.53
2023-04-21T06:44:19.514Z,7.07
2023-04-21T06:45:19.296Z,7.44
2023-04-21T06:46:19.301Z,8.55
2023-04-21T06:47:19.368Z,6.91
2023-04-21T06:48:19.318Z,6.94
2023-04-21T06:49:19.632Z,7.54
2023-04-21T06:50:19.393Z,7.86
2023-04-21T06:51:19.412Z,7.37
2023-04-21T06:52:20.166Z,6.95
2023-04-21T06:53:19.522Z,7.38
2023-04-21T06:54:19.600Z,7.76
2023-04-21T06:55:19.615Z,8.07
2023-04-21T06:56:19.668Z,7.37
2023-04-21T06:57:19.727Z,7.46
2023-04-21T06:58:21.300Z,6.91
2023-04-21T06:59:20.420Z,8.47
2023-04-21T07:00:19.817Z,7.69
2023-04-21T07:01:19.890Z,7.68
2023-04-21T07:02:19.965Z,5.62
2023-04-21T07:03:20.090Z,7.08
2023-04-21T07:04:20.052Z,4.58
2023-04-21T07:05:20.024Z,6.05
2023-04-21T07:06:19.994Z,7.22
2023-04-21T07:07:20.120Z,7.68
2023-04-21T07:08:20.043Z,6.71
2023-04-21T07:09:20.365Z,7.34
2023-04-21T07:10:20.168Z,8.05
2023-04-21T07:11:20.173Z,7.81
2023-04-21T07:12:20.156Z,6.97
2023-04-21T07:13:20.101Z,7.56
2023-04-21T07:14:20.105Z,7.59
2023-04-21T07:15:20.107Z,7.92
2023-04-21T07:16:20.208Z,8.37
2023-04-21T07:17:20.167Z,8.01
2023-04-21T07:18:20.126Z,8.04
2023-04-21T07:19:20.319Z,8.16
2023-04-21T07:20:20.118Z,8.46
2023-04-21T07:21:20.179Z,7.72
2023-04-21T07:22:20.183Z,8.40
2023-04-21T07:23:20.191Z,8.83
2023-04-21T07:24:20.207Z,7.83
2023-04-21T07:25:20.218Z,7.36
2023-04-21T07:26:20.309Z,7.49
2023-04-21T07:27:20.797Z,7.76
2023-04-21T07:28:20.442Z,8.12
2023-04-21T07:29:20.597Z,8.08
2023-04-21T07:30:20.509Z,7.75
2023-04-21T07:31:20.728Z,8.13
2023-04-21T07:32:20.706Z,7.23
2023-04-21T07:33:20.688Z,4.69
2023-04-21T07:34:20.745Z,4.42
2023-04-21T07:35:20.789Z,4.77
2023-04-21T07:36:20.793Z,4.55
2023-04-21T07:37:21.294Z,4.45
2023-04-21T07:38:20.864Z,4.42
2023-04-21T07:39:21.372Z,4.39
2023-04-21T07:40:20.998Z,4.07
2023-04-21T07:41:21.091Z,4.42
2023-04-21T07:42:21.292Z,4.78
2023-04-21T07:43:20.942Z,4.35
2023-04-21T07:44:20.981Z,4.90
2023-04-21T07:45:20.963Z,4.30
2023-04-21T07:46:21.012Z,9.60
2023-04-21T07:47:21.304Z,5.26
2023-04-21T07:48:21.047Z,4.36
2023-04-21T07:49:21.241Z,4.88
2023-04-21T07:50:21.038Z,4.42
2023-04-21T07:51:21.122Z,4.05
2023-04-21T07:52:21.074Z,3.99
2023-04-21T07:53:21.094Z,3.79
2023-04-21T07:54:21.124Z,4.21
2023-04-21T07:55:21.102Z,3.79
2023-04-21T07:56:21.117Z,3.48
2023-04-21T07:57:21.175Z,4.31
2023-04-21T07:58:21.120Z,3.78
2023-04-21T07:59:21.455Z,3.58
2023-04-21T08:00:21.155Z,3.96
2023-04-21T08:01:21.196Z,3.62
2023-04-21T08:02:21.261Z,3.85
2023-04-21T08:03:24.283Z,3.22
2023-04-21T08:04:21.597Z,3.83
2023-04-21T08:05:21.317Z,3.35
2023-04-21T08:06:21.426Z,3.80
2023-04-21T08:07:21.185Z,3.98
2023-04-21T08:08:21.205Z,3.81
2023-04-21T08:09:21.261Z,3.99
2023-04-21T08:10:21.243Z,4.18
2023-04-21T08:11:21.136Z,3.48
2023-04-21T08:12:21.151Z,3.38
2023-04-21T08:13:21.127Z,3.51
2023-04-21T08:14:21.294Z,3.48
2023-04-21T08:15:21.107Z,3.59
2023-04-21T08:16:21.134Z,3.02
2023-04-21T08:17:21.196Z,3.20
2023-04-21T08:18:22.441Z,3.16
2023-04-21T08:19:21.214Z,3.11
2023-04-21T08:20:21.081Z,3.25
2023-04-21T08:21:21.046Z,3.51
2023-04-21T08:22:21.560Z,3.42
2023-04-21T08:23:21.125Z,3.17
2023-04-21T08:24:21.263Z,3.02
2023-04-21T08:25:21.018Z,3.57
2023-04-21T08:26:21.022Z,3.58
2023-04-21T08:27:21.013Z,3.57
2023-04-21T08:28:21.018Z,3.35
2023-04-21T08:29:20.988Z,3.45
2023-04-21T08:30:21.059Z,2.90
2023-04-21T08:31:21.184Z,3.83
2023-04-21T08:32:21.203Z,3.82
2023-04-21T08:33:21.027Z,3.21
2023-04-21T08:34:22.112Z,3.84
2023-04-21T08:35:21.255Z,3.02
2023-04-21T08:36:28.984Z,3.79
2023-04-21T08:37:22.187Z,3.87
2023-04-21T08:38:21.200Z,3.27
2023-04-21T08:39:21.307Z,3.30
2023-04-21T08:40:21.201Z,3.49
2023-04-21T08:41:21.172Z,3.26
2023-04-21T08:42:21.337Z,3.18
2023-04-21T08:43:21.169Z,3.55
2023-04-21T08:44:21.333Z,4.45
2023-04-21T08:45:21.136Z,3.28
2023-04-21T08:46:21.218Z,3.73
2023-04-21T08:47:21.170Z,3.23
2023-04-21T08:48:21.145Z,2.94
2023-04-21T08:49:21.279Z,3.79
2023-04-21T08:50:21.161Z,4.26
2023-04-21T08:51:21.146Z,4.20
2023-04-21T08:52:21.171Z,3.91
2023-04-21T08:53:21.180Z,3.48
2023-04-21T08:54:21.217Z,3.50
2023-04-21T08:55:21.265Z,3.66
2023-04-21T08:56:21.336Z,3.26
2023-04-21T08:57:21.599Z,3.39
2023-04-21T08:58:21.435Z,3.10
2023-04-21T08:59:21.738Z,3.08
2023-04-21T09:00:21.602Z,3.32
2023-04-21T09:01:21.667Z,3.44
2023-04-21T09:02:21.713Z,3.46
2023-04-21T09:03:26.093Z,3.73
2023-04-21T09:04:21.803Z,4.27
2023-04-21T09:05:21.972Z,3.39
2023-04-21T09:06:21.931Z,3.26
2023-04-21T09:07:21.648Z,2.93
2023-04-21T09:08:21.677Z,3.81
2023-04-21T09:09:21.867Z,3.46
2023-04-21T09:10:21.653Z,2.98
2023-04-21T09:11:21.609Z,3.47
2023-04-21T09:12:21.592Z,3.70
2023-04-21T09:13:21.759Z,3.25
2023-04-21T09:14:21.656Z,3.24
2023-04-21T09:15:21.557Z,3.02
2023-04-21T09:16:22.369Z,2.71
2023-04-21T09:17:21.611Z,4.39
2023-04-21T09:18:21.546Z,3.76
2023-04-21T09:19:21.654Z,3.18
2023-04-21T09:20:21.619Z,3.54
2023-04-21T09:21:22.430Z,3.17
2023-04-21T09:22:21.567Z,3.61
2023-04-21T09:23:21.599Z,3.53
2023-04-21T09:24:21.609Z,3.23
2023-04-21T09:25:21.640Z,3.61
2023-04-21T09:26:21.610Z,3.03
2023-04-21T09:27:21.643Z,3.32
2023-04-21T09:28:21.726Z,3.43
2023-04-21T09:29:21.827Z,3.09
2023-04-21T09:30:21.677Z,3.19
2023-04-21T09:31:21.747Z,3.23
2023-04-21T09:32:21.760Z,3.08
2023-04-21T09:33:30.693Z,2.94
2023-04-21T09:34:22.793Z,3.37
2023-04-21T09:35:21.735Z,2.77
2023-04-21T09:36:21.765Z,2.99
2023-04-21T09:37:21.841Z,2.89
2023-04-21T09:38:21.732Z,2.74
2023-04-21T09:39:38.253Z,3.41
2023-04-21T09:40:22.715Z,3.64
2023-04-21T09:41:21.672Z,3.06
2023-04-21T09:42:21.838Z,3.37
2023-04-21T09:43:21.659Z,3.12
2023-04-21T09:44:21.887Z,2.54
2023-04-21T09:45:32.969Z,2.48
2023-04-21T09:46:22.710Z,3.76
2023-04-21T09:47:21.664Z,2.97
2023-04-21T09:48:22.524Z,2.66
2023-04-21T09:49:21.610Z,2.82
2023-04-21T09:50:39.153Z,2.87
2023-04-21T09:51:36.875Z,3.54
2023-04-21T09:52:22.595Z,2.96
2023-04-21T09:53:21.596Z,2.41
2023-04-21T09:54:29.012Z,2.66
2023-04-21T09:55:22.562Z,2.42
2023-04-21T09:56:21.571Z,2.46
2023-04-21T09:57:21.581Z,2.78
2023-04-21T09:58:21.537Z,2.54
2023-04-21T09:59:23.525Z,2.28
2023-04-21T10:00:21.557Z,2.18
2023-04-21T10:01:21.537Z,2.39
2023-04-21T10:02:21.905Z,2.00
2023-04-21T10:03:21.615Z,2.64
2023-04-21T10:04:21.965Z,2.11
2023-04-21T10:05:21.591Z,2.02
2023-04-21T10:06:21.570Z,2.39
2023-04-21T10:07:21.556Z,1.97
2023-04-21T10:08:21.569Z,1.78
2023-04-21T10:09:21.527Z,1.67
2023-04-21T10:10:21.598Z,1.85
2023-04-21T10:11:21.804Z,1.38
2023-04-21T10:12:21.835Z,1.93
2023-04-21T10:13:21.936Z,1.53
2023-04-21T10:14:22.153Z,1.11
2023-04-21T10:15:21.992Z,1.01
2023-04-21T10:16:22.016Z,1.34
2023-04-21T10:17:21.998Z,1.20
2023-04-21T10:18:21.972Z,1.21
2023-04-21T10:19:22.013Z,1.00
2023-04-21T10:20:22.022Z,0.84
2023-04-21T10:21:22.271Z,1.25
2023-04-21T10:22:22.399Z,0.67
2023-04-21T10:23:22.108Z,0.95
2023-04-21T10:24:22.375Z,1.13
2023-04-21T10:25:22.133Z,0.89
2023-04-21T10:26:22.196Z,0.74
2023-04-21T10:27:22.271Z,2.01
2023-04-21T10:28:22.293Z,2.82
2023-04-21T10:29:22.254Z,2.24
2023-04-21T10:30:22.277Z,3.81
2023-04-21T10:31:22.318Z,3.34
2023-04-21T10:32:22.381Z,2.95
2023-04-21T10:33:22.333Z,3.02
2023-04-21T10:34:22.578Z,3.27
2023-04-21T10:35:22.372Z,2.77
2023-04-21T10:36:22.468Z,3.36
2023-04-21T10:37:22.406Z,2.88
2023-04-21T10:38:22.872Z,2.82
2023-04-21T10:39:22.449Z,3.26
2023-04-21T10:40:33.019Z,5.41
2023-04-21T10:41:23.530Z,3.27
2023-04-21T10:42:22.467Z,3.35
2023-04-21T10:43:22.883Z,3.23
2023-04-21T10:44:22.595Z,2.63
2023-04-21T10:45:22.460Z,3.21
2023-04-21T10:46:22.485Z,2.80
2023-04-21T10:47:22.497Z,2.44
2023-04-21T10:48:22.455Z,2.10
2023-04-21T10:49:22.449Z,2.57
2023-04-21T10:50:22.385Z,2.29
2023-04-21T10:51:22.396Z,2.93
2023-04-21T10:52:22.377Z,3.42
2023-04-21T10:53:22.407Z,3.12
2023-04-21T10:54:22.496Z,2.59
2023-04-21T10:55:22.382Z,2.53
2023-04-21T10:56:22.434Z,2.77
2023-04-21T10:57:22.421Z,2.74
2023-04-21T10:58:22.894Z,2.28
2023-04-21T10:59:22.498Z,2.11
2023-04-21T11:00:23.401Z,3.16
2023-04-21T11:01:22.658Z,2.93
2023-04-21T11:02:22.844Z,2.46
2023-04-21T11:03:22.781Z,3.37
2023-04-21T11:04:23.671Z,2.83
2023-04-21T11:05:22.821Z,2.84
2023-04-21T11:06:22.887Z,2.67
2023-04-21T11:07:22.982Z,3.00
2023-04-21T11:08:22.967Z,4.02
2023-04-21T11:09:23.000Z,3.43
2023-04-21T11:10:23.048Z,2.99
2023-04-21T11:11:23.109Z,2.76
2023-04-21T11:12:23.146Z,2.53
2023-04-21T11:13:23.174Z,4.11
2023-04-21T11:14:23.200Z,3.34
2023-04-21T11:15:23.281Z,5.74
2023-04-21T11:16:23.359Z,4.56
2023-04-21T11:17:23.347Z,4.66
2023-04-21T11:18:23.346Z,5.42
2023-04-21T11:19:23.335Z,8.21
2023-04-21T11:20:23.427Z,6.89
2023-04-21T11:21:23.375Z,6.43
2023-04-21T11:22:23.415Z,5.81
2023-04-21T11:23:23.459Z,5.16
2023-04-21T11:24:23.558Z,5.82
2023-04-21T11:25:23.553Z,6.74
2023-04-21T11:26:23.599Z,6.73
2023-04-21T11:27:23.694Z,7.67
2023-04-21T11:28:23.893Z,7.70
2023-04-21T11:29:23.784Z,6.24
2023-04-21T11:30:23.757Z,5.91
2023-04-21T11:31:23.862Z,6.31
2023-04-21T11:32:23.889Z,7.30
2023-04-21T11:33:24.391Z,8.33
2023-04-21T11:34:24.005Z,7.62
2023-04-21T11:35:24.017Z,7.00
2023-04-21T11:36:24.068Z,6.43
2023-04-21T11:37:24.136Z,8.20
2023-04-21T11:38:24.185Z,5.82
2023-04-21T11:39:24.219Z,7.46
2023-04-21T11:40:24.520Z,6.21
2023-04-21T11:41:24.340Z,5.70
2023-04-21T11:42:24.381Z,5.64
2023-04-21T11:43:24.890Z,6.25
2023-04-21T11:44:24.495Z,6.80
2023-04-21T11:45:24.537Z,5.41
2023-04-21T11:46:24.828Z,6.81
2023-04-21T11:47:24.743Z,6.79
2023-04-21T11:48:24.725Z,5.82
2023-04-21T11:49:24.782Z,5.52
2023-04-21T11:50:24.853Z,5.57
2023-04-21T11:51:24.921Z,4.65
2023-04-21T11:52:24.980Z,6.94
2023-04-21T11:53:25.071Z,5.58
2023-04-21T11:54:25.078Z,5.02
2023-04-21T11:55:25.178Z,4.15
2023-04-21T11:56:25.214Z,5.12
2023-04-21T11:57:25.293Z,7.07
2023-04-21T11:58:25.320Z,5.88
2023-04-21T11:59:26.050Z,5.36
2023-04-21T12:00:25.463Z,4.65
2023-04-21T12:01:25.558Z,4.70
2023-04-21T12:02:25.734Z,5.13
2023-04-21T12:03:25.768Z,5.45
2023-04-21T12:04:25.918Z,4.16
2023-04-21T12:05:25.933Z,5.56
2023-04-21T12:06:26.074Z,3.58
2023-04-21T12:07:25.855Z,4.53
2023-04-21T12:08:25.964Z,4.88
2023-04-21T12:09:26.003Z,5.38
2023-04-21T12:10:26.046Z,5.03
2023-04-21T12:11:26.142Z,5.41
2023-04-21T12:12:26.176Z,4.49
2023-04-21T12:13:26.221Z,3.77
2023-04-21T12:14:26.288Z,5.05
2023-04-21T12:15:26.377Z,4.23
2023-04-21T12:16:26.468Z,3.89
2023-04-21T12:17:26.504Z,4.15
2023-04-21T12:18:26.510Z,3.86
2023-04-21T12:19:26.633Z,4.28
2023-04-21T12:20:26.644Z,3.20
2023-04-21T12:21:26.743Z,3.90
2023-04-21T12:22:26.773Z,4.49
2023-04-21T12:23:26.914Z,4.02
2023-04-21T12:24:26.868Z,5.06
2023-04-21T12:25:26.976Z,3.37
2023-04-21T12:26:27.012Z,3.92
2023-04-21T12:27:27.065Z,4.30
2023-04-21T12:28:27.166Z,3.82
2023-04-21T12:29:27.220Z,4.51
2023-04-21T12:30:27.276Z,4.29
2023-04-21T12:31:27.388Z,4.08
2023-04-21T12:32:27.416Z,4.52
2023-04-21T12:33:27.511Z,4.49
2023-04-21T12:34:27.516Z,3.36
2023-04-21T12:35:27.608Z,3.52
2023-04-21T12:36:27.700Z,3.13
2023-04-21T12:37:27.681Z,3.80
2023-04-21T12:38:27.780Z,3.48
2023-04-21T12:39:28.105Z,3.79
2023-04-21T12:40:27.875Z,3.39
2023-04-21T12:41:27.965Z,3.74
2023-04-21T12:42:28.012Z,3.16
2023-04-21T12:43:28.099Z,4.15
2023-04-21T12:44:28.118Z,2.95
2023-04-21T12:45:28.259Z,3.55
2023-04-21T12:46:28.252Z,3.53
2023-04-21T12:47:28.370Z,2.25
2023-04-21T12:48:28.356Z,2.82
2023-04-21T12:49:28.669Z,3.46
2023-04-21T12:50:28.486Z,2.65
2023-04-21T12:51:28.505Z,3.01
2023-04-21T12:52:28.604Z,3.34
2023-04-21T12:53:30.639Z,2.57
2023-04-21T12:54:28.836Z,3.26
2023-04-21T12:55:28.877Z,3.16
2023-04-21T12:56:28.886Z,2.94
2023-04-21T12:57:28.988Z,3.26
2023-04-21T12:58:29.008Z,3.85
2023-04-21T12:59:29.399Z,2.63
2023-04-21T13:00:29.071Z,2.91
2023-04-21T13:01:29.157Z,4.06
2023-04-21T13:02:29.303Z,2.74
2023-04-21T13:03:29.706Z,2.78
2023-04-21T13:04:29.459Z,2.13
2023-04-21T13:05:29.270Z,2.77
2023-04-21T13:06:29.333Z,3.00
2023-04-21T13:07:29.390Z,2.79
2023-04-21T13:08:29.394Z,3.27
2023-04-21T13:09:29.633Z,2.35
2023-04-21T13:10:29.462Z,2.36
2023-04-21T13:11:29.524Z,2.47
2023-04-21T13:12:29.645Z,3.56
2023-04-21T13:13:29.609Z,2.30
2023-04-21T13:14:29.627Z,2.00
2023-04-21T13:15:29.678Z,2.07
2023-04-21T13:16:30.438Z,2.26
2023-04-21T13:17:29.753Z,2.49
2023-04-21T13:18:29.748Z,2.27
2023-04-21T13:19:30.153Z,1.74